sensor_id;sensor_type;location;lat;lon;timestamp;temperature;humidity
7998;DHT22;4044;49.814;7.828;2023-02-02T00:01:39;8.10;99.50
7998;DHT22;4044;49.814;7.828;2023-02-02T00:04:05;8.10;99.90
7998;DHT22;4044;49.814;7.828;2023-02-02T00:06:31;8.10;99.40
7998;DHT22;4044;49.814;7.828;2023-02-02T00:09:00;8.10;99.70
7998;DHT22;4044;49.814;7.828;2023-02-02T00:11:27;8.10;99.50
7998;DHT22;4044;49.814;7.828;2023-02-02T00:13:53;8.10;99.50
7998;DHT22;4044;49.814;7.828;2023-02-02T00:18:54;8.20;99.40
7998;DHT22;4044;49.814;7.828;2023-02-02T00:21:21;8.20;99.50
7998;DHT22;4044;49.814;7.828;2023-02-02T00:23:47;8.20;99.50
7998;DHT22;4044;49.814;7.828;2023-02-02T00:26:13;8.30;99.60
7998;DHT22;4044;49.814;7.828;2023-02-02T00:28:38;8.30;99.60
7998;DHT22;4044;49.814;7.828;2023-02-02T00:31:04;8.30;99.50
7998;DHT22;4044;49.814;7.828;2023-02-02T00:33:30;8.30;99.40
7998;DHT22;4044;49.814;7.828;2023-02-02T00:35:55;8.30;99.50
7998;DHT22;4044;49.814;7.828;2023-02-02T00:38:21;8.30;99.70
7998;DHT22;4044;49.814;7.828;2023-02-02T00:40:47;8.30;99.60
7998;DHT22;4044;49.814;7.828;2023-02-02T00:43:12;8.30;99.80
7998;DHT22;4044;49.814;7.828;2023-02-02T00:45:39;8.30;99.70
7998;DHT22;4044;49.814;7.828;2023-02-02T00:48:05;8.30;99.70
7998;DHT22;4044;49.814;7.828;2023-02-02T00:50:31;8.40;99.80
7998;DHT22;4044;49.814;7.828;2023-02-02T00:52:56;8.40;99.90
7998;DHT22;4044;49.814;7.828;2023-02-02T00:55:23;8.40;99.90
7998;DHT22;4044;49.814;7.828;2023-02-02T00:57:49;8.40;99.90
7998;DHT22;4044;49.814;7.828;2023-02-02T01:00:19;8.30;99.90
7998;DHT22;4044;49.814;7.828;2023-02-02T01:02:45;8.30;99.90
7998;DHT22;4044;49.814;7.828;2023-02-02T01:05:12;8.30;99.90
7998;DHT22;4044;49.814;7.828;2023-02-02T01:07:38;8.40;99.90
7998;DHT22;4044;49.814;7.828;2023-02-02T01:10:05;8.30;99.90
7998;DHT22;4044;49.814;7.828;2023-02-02T01:12:31;8.30;99.90
7998;DHT22;4044;49.814;7.828;2023-02-02T01:14:57;8.30;99.90
7998;DHT22;4044;49.814;7.828;2023-02-02T01:17:22;8.30;99.90
7998;DHT22;4044;49.814;7.828;2023-02-02T01:19:48;8.40;99.90
7998;DHT22;4044;49.814;7.828;2023-02-02T01:22:13;8.30;99.90
7998;DHT22;4044;49.814;7.828;2023-02-02T01:24:39;8.30;99.90
7998;DHT22;4044;49.814;7.828;2023-02-02T01:27:04;8.30;99.90
7998;DHT22;4044;49.814;7.828;2023-02-02T01:29:30;8.10;99.90
7998;DHT22;4044;49.814;7.828;2023-02-02T01:31:56;8.00;99.90
7998;DHT22;4044;49.814;7.828;2023-02-02T01:34:22;8.00;99.90
7998;DHT22;4044;49.814;7.828;2023-02-02T01:36:47;8.00;99.90
7998;DHT22;4044;49.814;7.828;2023-02-02T01:39:13;8.10;99.90
7998;DHT22;4044;49.814;7.828;2023-02-02T01:41:40;8.20;99.90
7998;DHT22;4044;49.814;7.828;2023-02-02T01:47:10;8.00;99.90
7998;DHT22;4044;49.814;7.828;2023-02-02T01:49:36;8.00;99.90
7998;DHT22;4044;49.814;7.828;2023-02-02T01:52:03;7.90;99.90
7998;DHT22;4044;49.814;7.828;2023-02-02T01:54:33;7.90;99.90
7998;DHT22;4044;49.814;7.828;2023-02-02T01:57:05;8.00;99.90
7998;DHT22;4044;49.814;7.828;2023-02-02T01:59:33;8.00;99.90
7998;DHT22;4044;49.814;7.828;2023-02-02T02:01:59;7.80;99.90
7998;DHT22;4044;49.814;7.828;2023-02-02T02:04:26;7.70;99.90
7998;DHT22;4044;49.814;7.828;2023-02-02T02:06:53;7.70;99.90
7998;DHT22;4044;49.814;7.828;2023-02-02T02:09:19;7.80;99.90
7998;DHT22;4044;49.814;7.828;2023-02-02T02:11:45;7.80;99.90
7998;DHT22;4044;49.814;7.828;2023-02-02T02:14:11;7.80;99.90
7998;DHT22;4044;49.814;7.828;2023-02-02T02:17:19;7.80;99.90
7998;DHT22;4044;49.814;7.828;2023-02-02T02:23:53;8.00;99.90
7998;DHT22;4044;49.814;7.828;2023-02-02T02:30:10;8.20;99.90
7998;DHT22;4044;49.814;7.828;2023-02-02T02:33:02;8.20;99.90
7998;DHT22;4044;49.814;7.828;2023-02-02T02:38:34;8.30;99.90
7998;DHT22;4044;49.814;7.828;2023-02-02T02:41:11;8.30;99.90
7998;DHT22;4044;49.814;7.828;2023-02-02T02:43:47;8.30;99.90
7998;DHT22;4044;49.814;7.828;2023-02-02T02:46:13;8.20;99.90
7998;DHT22;4044;49.814;7.828;2023-02-02T02:48:43;8.00;99.90
7998;DHT22;4044;49.814;7.828;2023-02-02T02:51:39;7.80;99.90
7998;DHT22;4044;49.814;7.828;2023-02-02T02:54:05;7.70;99.90
7998;DHT22;4044;49.814;7.828;2023-02-02T02:59:42;7.60;99.90
7998;DHT22;4044;49.814;7.828;2023-02-02T03:02:39;7.50;99.90
7998;DHT22;4044;49.814;7.828;2023-02-02T03:07:46;7.50;99.90
7998;DHT22;4044;49.814;7.828;2023-02-02T03:10:17;7.60;99.90
7998;DHT22;4044;49.814;7.828;2023-02-02T03:12:49;7.60;99.90
7998;DHT22;4044;49.814;7.828;2023-02-02T03:15:15;7.60;99.90
7998;DHT22;4044;49.814;7.828;2023-02-02T03:17:42;7.60;99.90
7998;DHT22;4044;49.814;7.828;2023-02-02T03:20:08;7.60;99.90
7998;DHT22;4044;49.814;7.828;2023-02-02T03:22:34;7.70;99.90
7998;DHT22;4044;49.814;7.828;2023-02-02T03:25:00;7.80;99.90
7998;DHT22;4044;49.814;7.828;2023-02-02T03:27:26;7.90;99.90
7998;DHT22;4044;49.814;7.828;2023-02-02T03:29:52;8.00;99.90
7998;DHT22;4044;49.814;7.828;2023-02-02T03:32:17;8.10;99.90
7998;DHT22;4044;49.814;7.828;2023-02-02T03:34:43;8.20;99.90
7998;DHT22;4044;49.814;7.828;2023-02-02T03:37:08;8.00;99.90
7998;DHT22;4044;49.814;7.828;2023-02-02T03:39:34;8.00;99.90
7998;DHT22;4044;49.814;7.828;2023-02-02T03:41:59;7.80;99.90
7998;DHT22;4044;49.814;7.828;2023-02-02T03:44:25;7.70;99.90
7998;DHT22;4044;49.814;7.828;2023-02-02T03:46:54;7.70;99.90
7998;DHT22;4044;49.814;7.828;2023-02-02T03:49:20;7.70;99.90
7998;DHT22;4044;49.814;7.828;2023-02-02T03:51:45;7.70;99.90
7998;DHT22;4044;49.814;7.828;2023-02-02T03:54:11;7.80;99.90
7998;DHT22;4044;49.814;7.828;2023-02-02T03:56:37;7.80;99.90
7998;DHT22;4044;49.814;7.828;2023-02-02T03:59:02;7.80;99.90
7998;DHT22;4044;49.814;7.828;2023-02-02T04:01:29;7.90;99.90
7998;DHT22;4044;49.814;7.828;2023-02-02T04:03:55;8.00;99.90
7998;DHT22;4044;49.814;7.828;2023-02-02T04:06:22;8.20;99.90
7998;DHT22;4044;49.814;7.828;2023-02-02T04:08:48;8.30;99.90
7998;DHT22;4044;49.814;7.828;2023-02-02T04:11:13;8.30;99.90
7998;DHT22;4044;49.814;7.828;2023-02-02T04:13:39;8.30;99.90
7998;DHT22;4044;49.814;7.828;2023-02-02T04:16:05;8.30;99.90
7998;DHT22;4044;49.814;7.828;2023-02-02T04:18:31;8.40;99.90
7998;DHT22;4044;49.814;7.828;2023-02-02T04:20:57;8.40;99.90
7998;DHT22;4044;49.814;7.828;2023-02-02T04:23:24;8.50;99.90
7998;DHT22;4044;49.814;7.828;2023-02-02T04:25:50;8.50;99.90
7998;DHT22;4044;49.814;7.828;2023-02-02T04:28:16;8.50;99.90
7998;DHT22;4044;49.814;7.828;2023-02-02T04:30:41;8.50;99.90
7998;DHT22;4044;49.814;7.828;2023-02-02T04:33:07;8.40;99.90
7998;DHT22;4044;49.814;7.828;2023-02-02T04:35:33;8.30;99.90
7998;DHT22;4044;49.814;7.828;2023-02-02T04:37:58;8.20;99.90
7998;DHT22;4044;49.814;7.828;2023-02-02T04:40:24;8.10;99.90
7998;DHT22;4044;49.814;7.828;2023-02-02T04:42:50;8.10;99.90
7998;DHT22;4044;49.814;7.828;2023-02-02T04:45:15;8.10;99.90
7998;DHT22;4044;49.814;7.828;2023-02-02T04:47:41;8.10;99.90
7998;DHT22;4044;49.814;7.828;2023-02-02T04:50:07;8.10;99.90
7998;DHT22;4044;49.814;7.828;2023-02-02T04:52:32;8.20;99.90
7998;DHT22;4044;49.814;7.828;2023-02-02T04:54:59;8.20;99.90
7998;DHT22;4044;49.814;7.828;2023-02-02T04:57:25;8.20;99.90
7998;DHT22;4044;49.814;7.828;2023-02-02T04:59:51;8.00;99.90
7998;DHT22;4044;49.814;7.828;2023-02-02T05:02:16;7.90;99.90
7998;DHT22;4044;49.814;7.828;2023-02-02T05:04:42;7.70;99.90
7998;DHT22;4044;49.814;7.828;2023-02-02T05:07:07;7.60;99.90
7998;DHT22;4044;49.814;7.828;2023-02-02T05:09:33;7.50;99.90
7998;DHT22;4044;49.814;7.828;2023-02-02T05:11:58;7.40;99.90
7998;DHT22;4044;49.814;7.828;2023-02-02T05:14:24;7.40;99.90
7998;DHT22;4044;49.814;7.828;2023-02-02T05:16:49;7.40;99.90
7998;DHT22;4044;49.814;7.828;2023-02-02T05:19:15;7.40;99.90
7998;DHT22;4044;49.814;7.828;2023-02-02T05:21:42;7.40;99.90
7998;DHT22;4044;49.814;7.828;2023-02-02T05:24:09;7.40;99.90
7998;DHT22;4044;49.814;7.828;2023-02-02T05:26:35;7.40;99.90
7998;DHT22;4044;49.814;7.828;2023-02-02T05:29:00;7.40;99.90
7998;DHT22;4044;49.814;7.828;2023-02-02T05:31:27;7.40;99.90
7998;DHT22;4044;49.814;7.828;2023-02-02T05:33:52;7.50;99.90
7998;DHT22;4044;49.814;7.828;2023-02-02T05:36:18;7.40;99.90
7998;DHT22;4044;49.814;7.828;2023-02-02T05:38:44;7.40;99.90
7998;DHT22;4044;49.814;7.828;2023-02-02T05:41:09;7.30;99.90
7998;DHT22;4044;49.814;7.828;2023-02-02T05:43:35;7.40;99.90
7998;DHT22;4044;49.814;7.828;2023-02-02T05:46:00;7.40;99.90
7998;DHT22;4044;49.814;7.828;2023-02-02T05:48:26;7.50;99.90
7998;DHT22;4044;49.814;7.828;2023-02-02T05:51:14;7.50;99.90
7998;DHT22;4044;49.814;7.828;2023-02-02T05:53:41;7.40;99.90
7998;DHT22;4044;49.814;7.828;2023-02-02T05:56:09;7.40;99.90
7998;DHT22;4044;49.814;7.828;2023-02-02T05:58:35;7.50;99.90
7998;DHT22;4044;49.814;7.828;2023-02-02T06:01:00;7.50;99.90
7998;DHT22;4044;49.814;7.828;2023-02-02T06:03:26;7.50;99.90
7998;DHT22;4044;49.814;7.828;2023-02-02T06:05:51;7.50;99.90
7998;DHT22;4044;49.814;7.828;2023-02-02T06:08:17;7.50;99.90
7998;DHT22;4044;49.814;7.828;2023-02-02T06:10:42;7.50;99.90
7998;DHT22;4044;49.814;7.828;2023-02-02T06:13:08;7.60;99.90
7998;DHT22;4044;49.814;7.828;2023-02-02T06:15:34;7.60;99.90
7998;DHT22;4044;49.814;7.828;2023-02-02T06:18:00;7.70;99.90
7998;DHT22;4044;49.814;7.828;2023-02-02T06:20:26;7.70;99.90
7998;DHT22;4044;49.814;7.828;2023-02-02T06:22:51;7.80;99.90
7998;DHT22;4044;49.814;7.828;2023-02-02T06:25:17;7.90;99.90
7998;DHT22;4044;49.814;7.828;2023-02-02T06:27:42;7.90;99.90
7998;DHT22;4044;49.814;7.828;2023-02-02T06:30:12;8.10;99.90
7998;DHT22;4044;49.814;7.828;2023-02-02T06:32:37;8.10;99.90
7998;DHT22;4044;49.814;7.828;2023-02-02T06:35:04;8.10;99.90
7998;DHT22;4044;49.814;7.828;2023-02-02T06:37:29;8.20;99.90
7998;DHT22;4044;49.814;7.828;2023-02-02T06:39:55;8.20;99.90
7998;DHT22;4044;49.814;7.828;2023-02-02T06:42:21;8.20;99.90
7998;DHT22;4044;49.814;7.828;2023-02-02T06:44:46;8.20;99.90
7998;DHT22;4044;49.814;7.828;2023-02-02T06:47:12;8.20;99.90
7998;DHT22;4044;49.814;7.828;2023-02-02T06:49:37;8.20;99.90
7998;DHT22;4044;49.814;7.828;2023-02-02T06:52:03;8.20;99.90
7998;DHT22;4044;49.814;7.828;2023-02-02T06:54:28;8.20;99.90
7998;DHT22;4044;49.814;7.828;2023-02-02T06:56:54;8.30;99.90
7998;DHT22;4044;49.814;7.828;2023-02-02T06:59:20;8.40;99.90
7998;DHT22;4044;49.814;7.828;2023-02-02T07:01:48;8.30;99.90
7998;DHT22;4044;49.814;7.828;2023-02-02T07:04:13;8.30;99.90
7998;DHT22;4044;49.814;7.828;2023-02-02T07:06:40;8.30;99.90
7998;DHT22;4044;49.814;7.828;2023-02-02T07:09:06;8.30;99.90
7998;DHT22;4044;49.814;7.828;2023-02-02T07:11:31;8.30;99.90
7998;DHT22;4044;49.814;7.828;2023-02-02T07:13:59;8.40;99.90
7998;DHT22;4044;49.814;7.828;2023-02-02T07:16:25;8.40;99.90
7998;DHT22;4044;49.814;7.828;2023-02-02T07:18:51;8.40;99.90
7998;DHT22;4044;49.814;7.828;2023-02-02T07:21:19;8.30;99.90
7998;DHT22;4044;49.814;7.828;2023-02-02T07:23:45;8.40;99.90
7998;DHT22;4044;49.814;7.828;2023-02-02T07:26:12;8.40;99.90
7998;DHT22;4044;49.814;7.828;2023-02-02T07:28:38;8.40;99.90
7998;DHT22;4044;49.814;7.828;2023-02-02T07:31:24;8.50;99.90
7998;DHT22;4044;49.814;7.828;2023-02-02T07:33:51;8.50;99.90
7998;DHT22;4044;49.814;7.828;2023-02-02T07:36:18;8.50;99.90
7998;DHT22;4044;49.814;7.828;2023-02-02T07:38:46;8.50;99.90
7998;DHT22;4044;49.814;7.828;2023-02-02T07:41:12;8.50;99.90
7998;DHT22;4044;49.814;7.828;2023-02-02T07:43:38;8.50;99.90
7998;DHT22;4044;49.814;7.828;2023-02-02T07:46:05;8.50;99.90
7998;DHT22;4044;49.814;7.828;2023-02-02T07:48:33;8.50;99.90
7998;DHT22;4044;49.814;7.828;2023-02-02T07:50:59;8.50;99.90
7998;DHT22;4044;49.814;7.828;2023-02-02T07:53:26;8.60;99.90
7998;DHT22;4044;49.814;7.828;2023-02-02T07:55:51;8.60;99.90
7998;DHT22;4044;49.814;7.828;2023-02-02T07:58:17;8.60;99.90
7998;DHT22;4044;49.814;7.828;2023-02-02T08:00:42;8.70;99.90
7998;DHT22;4044;49.814;7.828;2023-02-02T08:03:11;8.70;99.60
7998;DHT22;4044;49.814;7.828;2023-02-02T08:05:36;8.80;99.80
7998;DHT22;4044;49.814;7.828;2023-02-02T08:08:03;8.80;99.90
7998;DHT22;4044;49.814;7.828;2023-02-02T08:10:29;8.80;99.80
7998;DHT22;4044;49.814;7.828;2023-02-02T08:12:54;8.80;99.90
7998;DHT22;4044;49.814;7.828;2023-02-02T08:15:20;8.80;99.80
7998;DHT22;4044;49.814;7.828;2023-02-02T08:17:46;8.80;99.40
7998;DHT22;4044;49.814;7.828;2023-02-02T08:20:14;8.90;99.70
7998;DHT22;4044;49.814;7.828;2023-02-02T08:22:40;8.80;99.30
7998;DHT22;4044;49.814;7.828;2023-02-02T08:25:07;8.90;99.40
7998;DHT22;4044;49.814;7.828;2023-02-02T08:27:32;8.90;99.70
7998;DHT22;4044;49.814;7.828;2023-02-02T08:29:58;8.90;99.50
7998;DHT22;4044;49.814;7.828;2023-02-02T08:32:23;8.90;99.00
7998;DHT22;4044;49.814;7.828;2023-02-02T08:34:49;8.90;98.70
7998;DHT22;4044;49.814;7.828;2023-02-02T08:37:16;8.90;98.90
7998;DHT22;4044;49.814;7.828;2023-02-02T08:39:42;9.00;99.30
7998;DHT22;4044;49.814;7.828;2023-02-02T08:42:08;9.00;98.90
7998;DHT22;4044;49.814;7.828;2023-02-02T08:44:33;8.90;98.50
7998;DHT22;4044;49.814;7.828;2023-02-02T08:46:59;9.00;98.90
7998;DHT22;4044;49.814;7.828;2023-02-02T08:49:25;9.00;98.70
7998;DHT22;4044;49.814;7.828;2023-02-02T08:51:50;9.00;98.70
7998;DHT22;4044;49.814;7.828;2023-02-02T08:54:16;9.00;98.70
7998;DHT22;4044;49.814;7.828;2023-02-02T08:56:41;9.10;98.80
7998;DHT22;4044;49.814;7.828;2023-02-02T08:59:07;9.10;98.30
7998;DHT22;4044;49.814;7.828;2023-02-02T09:01:33;9.20;98.30
7998;DHT22;4044;49.814;7.828;2023-02-02T09:04:01;9.20;98.20
7998;DHT22;4044;49.814;7.828;2023-02-02T09:06:34;9.20;98.10
7998;DHT22;4044;49.814;7.828;2023-02-02T09:09:00;9.20;98.20
7998;DHT22;4044;49.814;7.828;2023-02-02T09:11:25;9.10;98.20
7998;DHT22;4044;49.814;7.828;2023-02-02T09:13:56;9.20;98.50
7998;DHT22;4044;49.814;7.828;2023-02-02T09:16:23;9.30;98.20
7998;DHT22;4044;49.814;7.828;2023-02-02T09:18:48;9.30;98.00
7998;DHT22;4044;49.814;7.828;2023-02-02T09:21:15;9.40;98.50
7998;DHT22;4044;49.814;7.828;2023-02-02T09:23:42;9.40;97.80
7998;DHT22;4044;49.814;7.828;2023-02-02T09:26:14;9.40;98.20
7998;DHT22;4044;49.814;7.828;2023-02-02T09:28:41;9.40;98.10
7998;DHT22;4044;49.814;7.828;2023-02-02T09:31:08;9.40;98.10
7998;DHT22;4044;49.814;7.828;2023-02-02T09:33:34;9.50;98.20
7998;DHT22;4044;49.814;7.828;2023-02-02T09:36:10;9.50;98.00
7998;DHT22;4044;49.814;7.828;2023-02-02T09:38:37;9.40;97.90
7998;DHT22;4044;49.814;7.828;2023-02-02T09:41:26;9.50;97.90
7998;DHT22;4044;49.814;7.828;2023-02-02T09:46:58;9.40;97.60
7998;DHT22;4044;49.814;7.828;2023-02-02T09:52:16;9.40;97.70
7998;DHT22;4044;49.814;7.828;2023-02-02T09:54:46;9.40;97.50
7998;DHT22;4044;49.814;7.828;2023-02-02T09:57:21;9.50;97.50
7998;DHT22;4044;49.814;7.828;2023-02-02T09:59:49;9.40;97.80
7998;DHT22;4044;49.814;7.828;2023-02-02T10:02:20;9.40;97.50
7998;DHT22;4044;49.814;7.828;2023-02-02T10:04:50;9.40;97.80
7998;DHT22;4044;49.814;7.828;2023-02-02T10:07:23;9.40;97.60
7998;DHT22;4044;49.814;7.828;2023-02-02T10:12:44;9.60;97.60
7998;DHT22;4044;49.814;7.828;2023-02-02T10:18:15;9.70;97.90
7998;DHT22;4044;49.814;7.828;2023-02-02T10:20:55;9.70;97.20
7998;DHT22;4044;49.814;7.828;2023-02-02T10:23:45;9.80;97.90
7998;DHT22;4044;49.814;7.828;2023-02-02T10:29:15;9.90;97.40
7998;DHT22;4044;49.814;7.828;2023-02-02T10:32:04;9.90;97.40
7998;DHT22;4044;49.814;7.828;2023-02-02T10:34:42;9.80;97.20
7998;DHT22;4044;49.814;7.828;2023-02-02T10:37:41;9.90;97.60
7998;DHT22;4044;49.814;7.828;2023-02-02T10:46:05;10.10;96.70
7998;DHT22;4044;49.814;7.828;2023-02-02T10:48:34;10.30;96.70
7998;DHT22;4044;49.814;7.828;2023-02-02T10:51:32;10.50;96.30
7998;DHT22;4044;49.814;7.828;2023-02-02T10:53:59;10.80;96.20
7998;DHT22;4044;49.814;7.828;2023-02-02T10:56:36;11.00;96.10
7998;DHT22;4044;49.814;7.828;2023-02-02T10:59:14;10.90;95.60
7998;DHT22;4044;49.814;7.828;2023-02-02T11:01:44;11.00;96.40
7998;DHT22;4044;49.814;7.828;2023-02-02T11:04:10;10.70;95.70
7998;DHT22;4044;49.814;7.828;2023-02-02T11:06:54;10.80;95.80
7998;DHT22;4044;49.814;7.828;2023-02-02T11:09:25;10.90;96.00
7998;DHT22;4044;49.814;7.828;2023-02-02T11:12:19;10.80;95.90
7998;DHT22;4044;49.814;7.828;2023-02-02T11:14:55;10.70;96.10
7998;DHT22;4044;49.814;7.828;2023-02-02T11:17:24;10.80;96.20
7998;DHT22;4044;49.814;7.828;2023-02-02T11:19:51;10.70;96.30
7998;DHT22;4044;49.814;7.828;2023-02-02T11:22:32;10.60;96.00
7998;DHT22;4044;49.814;7.828;2023-02-02T11:25:01;10.40;96.20
7998;DHT22;4044;49.814;7.828;2023-02-02T11:27:30;10.30;96.30
7998;DHT22;4044;49.814;7.828;2023-02-02T11:29:58;10.40;96.60
7998;DHT22;4044;49.814;7.828;2023-02-02T11:32:27;10.30;96.10
7998;DHT22;4044;49.814;7.828;2023-02-02T11:35:20;10.30;96.30
7998;DHT22;4044;49.814;7.828;2023-02-02T11:37:58;10.30;96.40
7998;DHT22;4044;49.814;7.828;2023-02-02T11:40:37;10.30;96.40
7998;DHT22;4044;49.814;7.828;2023-02-02T11:43:12;10.20;96.50
7998;DHT22;4044;49.814;7.828;2023-02-02T11:45:41;10.40;96.40
7998;DHT22;4044;49.814;7.828;2023-02-02T11:48:19;10.30;96.00
7998;DHT22;4044;49.814;7.828;2023-02-02T11:50:53;10.30;96.30
7998;DHT22;4044;49.814;7.828;2023-02-02T11:53:45;10.40;96.20
7998;DHT22;4044;49.814;7.828;2023-02-02T11:56:23;10.60;96.50
7998;DHT22;4044;49.814;7.828;2023-02-02T11:58:53;10.70;96.60
7998;DHT22;4044;49.814;7.828;2023-02-02T12:04:23;11.30;95.80
7998;DHT22;4044;49.814;7.828;2023-02-02T12:06:49;11.40;95.30
7998;DHT22;4044;49.814;7.828;2023-02-02T12:09:23;11.70;95.40
7998;DHT22;4044;49.814;7.828;2023-02-02T12:23:09;11.70;95.50
7998;DHT22;4044;49.814;7.828;2023-02-02T12:34:13;11.40;95.00
7998;DHT22;4044;49.814;7.828;2023-02-02T12:39:26;11.20;95.60
7998;DHT22;4044;49.814;7.828;2023-02-02T12:42:07;11.00;95.10
7998;DHT22;4044;49.814;7.828;2023-02-02T12:47:32;10.50;95.40
7998;DHT22;4044;49.814;7.828;2023-02-02T12:50:11;10.60;95.50
7998;DHT22;4044;49.814;7.828;2023-02-02T12:52:53;10.60;95.60
7998;DHT22;4044;49.814;7.828;2023-02-02T12:55:28;10.80;95.80
7998;DHT22;4044;49.814;7.828;2023-02-02T12:58:27;10.70;96.00
7998;DHT22;4044;49.814;7.828;2023-02-02T13:01:17;10.80;96.20
7998;DHT22;4044;49.814;7.828;2023-02-02T13:07:02;11.10;95.10
7998;DHT22;4044;49.814;7.828;2023-02-02T13:12:42;11.10;95.30
7998;DHT22;4044;49.814;7.828;2023-02-02T13:15:14;10.90;95.30
7998;DHT22;4044;49.814;7.828;2023-02-02T13:17:46;10.80;95.70
7998;DHT22;4044;49.814;7.828;2023-02-02T13:25:49;10.80;95.80
7998;DHT22;4044;49.814;7.828;2023-02-02T13:31:17;10.70;96.00
7998;DHT22;4044;49.814;7.828;2023-02-02T13:33:48;10.60;96.00
7998;DHT22;4044;49.814;7.828;2023-02-02T13:36:22;10.60;96.50
7998;DHT22;4044;49.814;7.828;2023-02-02T13:38:57;10.70;96.60
7998;DHT22;4044;49.814;7.828;2023-02-02T13:41:24;10.70;96.30
7998;DHT22;4044;49.814;7.828;2023-02-02T13:44:13;10.70;96.30
7998;DHT22;4044;49.814;7.828;2023-02-02T13:51:55;10.50;96.30
7998;DHT22;4044;49.814;7.828;2023-02-02T13:57:14;10.40;96.30
7998;DHT22;4044;49.814;7.828;2023-02-02T14:02:48;10.40;96.80
7998;DHT22;4044;49.814;7.828;2023-02-02T14:07:48;10.30;96.60
7998;DHT22;4044;49.814;7.828;2023-02-02T14:10:25;10.30;96.90
7998;DHT22;4044;49.814;7.828;2023-02-02T14:12:53;10.20;97.00
7998;DHT22;4044;49.814;7.828;2023-02-02T14:15:38;10.10;96.90
7998;DHT22;4044;49.814;7.828;2023-02-02T14:18:04;10.10;97.00
7998;DHT22;4044;49.814;7.828;2023-02-02T14:26:08;10.00;97.10
7998;DHT22;4044;49.814;7.828;2023-02-02T14:28:43;10.00;97.20
7998;DHT22;4044;49.814;7.828;2023-02-02T14:31:42;10.20;97.00
7998;DHT22;4044;49.814;7.828;2023-02-02T14:43:22;10.00;96.90
7998;DHT22;4044;49.814;7.828;2023-02-02T14:48:48;9.90;97.20
7998;DHT22;4044;49.814;7.828;2023-02-02T14:51:32;10.00;96.80
7998;DHT22;4044;49.814;7.828;2023-02-02T14:54:01;10.10;96.70
7998;DHT22;4044;49.814;7.828;2023-02-02T14:57:00;10.00;96.50
7998;DHT22;4044;49.814;7.828;2023-02-02T14:59:36;10.10;96.40
7998;DHT22;4044;49.814;7.828;2023-02-02T15:02:16;10.10;96.70
7998;DHT22;4044;49.814;7.828;2023-02-02T15:04:42;10.00;96.40
7998;DHT22;4044;49.814;7.828;2023-02-02T15:09:53;10.10;96.50
7998;DHT22;4044;49.814;7.828;2023-02-02T15:12:41;10.10;96.70
7998;DHT22;4044;49.814;7.828;2023-02-02T15:15:19;10.10;96.30
7998;DHT22;4044;49.814;7.828;2023-02-02T15:18:05;10.10;96.60
7998;DHT22;4044;49.814;7.828;2023-02-02T15:20:44;10.00;96.50
7998;DHT22;4044;49.814;7.828;2023-02-02T15:23:48;10.00;96.30
7998;DHT22;4044;49.814;7.828;2023-02-02T15:26:31;10.00;96.50
7998;DHT22;4044;49.814;7.828;2023-02-02T15:29:02;10.00;96.20
7998;DHT22;4044;49.814;7.828;2023-02-02T15:31:35;9.90;96.70
7998;DHT22;4044;49.814;7.828;2023-02-02T15:34:08;9.80;96.60
7998;DHT22;4044;49.814;7.828;2023-02-02T15:36:38;9.80;96.70
7998;DHT22;4044;49.814;7.828;2023-02-02T15:41:49;9.90;96.60
7998;DHT22;4044;49.814;7.828;2023-02-02T15:44:36;9.90;96.30
7998;DHT22;4044;49.814;7.828;2023-02-02T15:47:10;9.80;95.80
7998;DHT22;4044;49.814;7.828;2023-02-02T15:49:37;9.80;95.80
7998;DHT22;4044;49.814;7.828;2023-02-02T15:52:11;9.80;96.40
7998;DHT22;4044;49.814;7.828;2023-02-02T15:54:38;9.80;96.20
7998;DHT22;4044;49.814;7.828;2023-02-02T15:57:30;9.90;96.50
7998;DHT22;4044;49.814;7.828;2023-02-02T15:59:57;10.00;96.00
7998;DHT22;4044;49.814;7.828;2023-02-02T16:02:36;9.90;96.70
7998;DHT22;4044;49.814;7.828;2023-02-02T16:08:00;9.90;96.90
7998;DHT22;4044;49.814;7.828;2023-02-02T16:10:26;9.90;97.20
7998;DHT22;4044;49.814;7.828;2023-02-02T16:12:52;9.90;97.30
7998;DHT22;4044;49.814;7.828;2023-02-02T16:15:22;9.80;97.50
7998;DHT22;4044;49.814;7.828;2023-02-02T16:17:59;9.70;97.50
7998;DHT22;4044;49.814;7.828;2023-02-02T16:20:26;9.60;97.40
7998;DHT22;4044;49.814;7.828;2023-02-02T16:22:53;9.60;97.70
7998;DHT22;4044;49.814;7.828;2023-02-02T16:25:21;9.60;97.50
7998;DHT22;4044;49.814;7.828;2023-02-02T16:27:48;9.60;97.70
7998;DHT22;4044;49.814;7.828;2023-02-02T16:30:28;9.60;97.20
7998;DHT22;4044;49.814;7.828;2023-02-02T16:32:54;9.60;97.20
7998;DHT22;4044;49.814;7.828;2023-02-02T16:41:06;9.60;97.10
7998;DHT22;4044;49.814;7.828;2023-02-02T16:43:32;9.60;97.10
7998;DHT22;4044;49.814;7.828;2023-02-02T16:46:01;9.50;96.90
7998;DHT22;4044;49.814;7.828;2023-02-02T16:48:38;9.50;97.00
7998;DHT22;4044;49.814;7.828;2023-02-02T16:53:34;9.30;97.20
7998;DHT22;4044;49.814;7.828;2023-02-02T16:56:01;9.20;97.20
7998;DHT22;4044;49.814;7.828;2023-02-02T16:58:27;9.10;97.30
7998;DHT22;4044;49.814;7.828;2023-02-02T17:01:03;9.10;97.40
7998;DHT22;4044;49.814;7.828;2023-02-02T17:03:33;9.00;97.60
7998;DHT22;4044;49.814;7.828;2023-02-02T17:06:00;9.00;97.60
7998;DHT22;4044;49.814;7.828;2023-02-02T17:08:32;8.90;97.60
7998;DHT22;4044;49.814;7.828;2023-02-02T17:15:55;8.90;97.60
7998;DHT22;4044;49.814;7.828;2023-02-02T17:18:21;8.90;97.60
7998;DHT22;4044;49.814;7.828;2023-02-02T17:20:47;9.00;97.90
7998;DHT22;4044;49.814;7.828;2023-02-02T17:23:18;9.00;97.90
7998;DHT22;4044;49.814;7.828;2023-02-02T17:25:44;8.90;97.80
7998;DHT22;4044;49.814;7.828;2023-02-02T17:28:16;9.00;97.80
7998;DHT22;4044;49.814;7.828;2023-02-02T17:30:43;9.00;97.70
7998;DHT22;4044;49.814;7.828;2023-02-02T17:33:11;8.90;97.70
7998;DHT22;4044;49.814;7.828;2023-02-02T17:35:39;8.90;97.80
7998;DHT22;4044;49.814;7.828;2023-02-02T17:38:05;8.90;97.90
7998;DHT22;4044;49.814;7.828;2023-02-02T17:40:32;8.90;97.70
7998;DHT22;4044;49.814;7.828;2023-02-02T17:42:58;9.00;97.70
7998;DHT22;4044;49.814;7.828;2023-02-02T17:45:29;8.90;97.60
7998;DHT22;4044;49.814;7.828;2023-02-02T17:47:54;8.90;97.70
7998;DHT22;4044;49.814;7.828;2023-02-02T17:50:20;8.80;97.80
7998;DHT22;4044;49.814;7.828;2023-02-02T17:52:49;8.80;97.80
7998;DHT22;4044;49.814;7.828;2023-02-02T17:57:52;8.70;97.80
7998;DHT22;4044;49.814;7.828;2023-02-02T18:00:20;8.60;98.00
7998;DHT22;4044;49.814;7.828;2023-02-02T18:02:48;8.50;98.10
7998;DHT22;4044;49.814;7.828;2023-02-02T18:05:14;8.50;98.10
7998;DHT22;4044;49.814;7.828;2023-02-02T18:07:41;8.40;98.10
7998;DHT22;4044;49.814;7.828;2023-02-02T18:10:08;8.50;98.20
7998;DHT22;4044;49.814;7.828;2023-02-02T18:12:34;8.50;98.30
7998;DHT22;4044;49.814;7.828;2023-02-02T18:15:01;8.50;98.20
7998;DHT22;4044;49.814;7.828;2023-02-02T18:17:27;8.50;98.20
7998;DHT22;4044;49.814;7.828;2023-02-02T18:19:53;8.50;98.20
7998;DHT22;4044;49.814;7.828;2023-02-02T18:22:20;8.50;98.20
7998;DHT22;4044;49.814;7.828;2023-02-02T18:24:45;8.50;98.30
7998;DHT22;4044;49.814;7.828;2023-02-02T18:27:11;8.40;98.30
7998;DHT22;4044;49.814;7.828;2023-02-02T18:29:37;8.40;98.30
7998;DHT22;4044;49.814;7.828;2023-02-02T18:32:02;8.40;98.40
7998;DHT22;4044;49.814;7.828;2023-02-02T18:34:30;8.50;98.40
7998;DHT22;4044;49.814;7.828;2023-02-02T18:36:56;8.50;98.30
7998;DHT22;4044;49.814;7.828;2023-02-02T18:39:21;8.50;98.30
7998;DHT22;4044;49.814;7.828;2023-02-02T18:41:47;8.50;98.10
7998;DHT22;4044;49.814;7.828;2023-02-02T18:44:12;8.50;98.40
7998;DHT22;4044;49.814;7.828;2023-02-02T18:46:38;8.50;98.40
7998;DHT22;4044;49.814;7.828;2023-02-02T18:49:03;8.50;98.50
7998;DHT22;4044;49.814;7.828;2023-02-02T18:51:29;8.50;98.50